Air Resources Laboratory banner image
Air Resources Laboratory web site National Oceanic and Atmospheric Administration (NOAA)

nj metar


K12N 102154Z AUTO 00000KT 31/17 A2999 RMK AO1 SLP145 T03110172=
KACY 102154Z AUTO 12008KT 10SM FEW090 27/20 A2999 RMK AO2 SLP154 T02720200=
KBLM 102156Z AUTO 15006KT 10SM BKN065 27/21 A3000 RMK AO2 SLP157 T02670211=
KCDW 102153Z 21003KT 10SM SCT060 31/16 A2996 RMK AO2 SLP150 T03060156=
KEWR 102151Z 14008KT 110V170 10SM FEW048 SCT055 28/19 A2996 RMK AO2 SLP144
 T02830189=
KFWN 102153Z AUTO VRB03KT 10SM FEW060 29/15 A2998 RMK AO2 SLP149 T02940150 $=
KMIV 102154Z AUTO 14007KT 10SM BKN055 OVC075 29/22 A2997 RMK AO2 SLP147
 T02940222=
KMMU 102145Z 29006KT 10SM SCT050 31/17 A2997=
KNEL 102200Z AUTO 14009KT 10SM FEW070 28/19 A2996 RMK AO2 SLP145 T02830194 PNO
 $=
KSMQ 102153Z AUTO VRB05KT 10SM FEW050 32/18 A2995 RMK AO2 SLP138 T03170178=
KTEB 102148Z VRB04KT 10SM FEW060 31/17 A2994=
KTTN 102153Z 29006KT 10SM BKN055 29/19 A2996=
KVAY 102154Z AUTO VRB04KT 10SM BKN050 OVC070 31/22 A2996 RMK AO2 SLP146
 T03060217 $=
KWRI 102156Z 13008KT 10SM SCT055 29/21 A2997 RMK AO2A SLP148 T02910213 $=
KWWD 102156Z AUTO 16007KT 10SM FEW085 28/23 A2999 RMK AO2 SLP155 T02780228 $=